Terminal Aerodrome Forecast
Issued by NWS Green Bay, WI

Home | Current Version | Previous Version | Text Only | Print | Product List | Glossary On
Versions: 1 2 3 4 5 6 7 8 9 10 11 12 13 14 15 16 17 18 19 20 21 22 23 24 25 26 27 28 29 30 31 32 33
000
FTUS43 KGRB 190500
TAFGRB
TAF
KGRB 190520Z 1906/2006 09007KT P6SM SKC
     FM190800 10007KT P6SM BKN150
     FM191500 14013G18KT P6SM SCT040 BKN150
     FM200100 17009KT P6SM SCT050 BKN120=

USA.gov is the U.S. government's official web portal to all federal, state and local government web resources and services.